Vassouras, Brazil
Current Conditions -  °F | °C
As of 10:00 AM on Tuesday 21 Oct 2014 (Local Time) from SBPB Reporting Station
Few Clouds Few Clouds  
Wind Chill: 91°   Ceiling: Unl
Heat Index: 98°   Visibility: 6mi
Dew Point: 72°   Wind: 17mph
Humidity: 52%   Direction: 60°ENE
Pressure: 29.88"   Gusts: NA
Location:  3.75°S, 42.17°W
Report Text: SBPB 211300Z 06015KT 9999 FEW017 33/22 Q1012
Loading
Personal Weather Stations






























Interactive Weather Map
Tropical Storm Tracking
New forecast layout! Learn more

10-Day Weather Forecast

Advertisements
Track Severe Weather on mobile